createdAt,value
2023-02-07T00:00:17.463Z,34.40
2023-02-07T00:02:46.434Z,36.70
2023-02-07T00:05:13.677Z,36.80
2023-02-07T00:07:40.554Z,37.80
2023-02-07T00:10:08.474Z,35.30
2023-02-07T00:12:35.684Z,29.80
2023-02-07T00:15:02.393Z,33.60
2023-02-07T00:17:29.568Z,34.10
2023-02-07T00:19:57.030Z,37.20
2023-02-07T00:22:23.889Z,37.30
2023-02-07T00:24:50.700Z,36.20
2023-02-07T00:27:17.875Z,34.90
2023-02-07T00:29:45.325Z,34.30
2023-02-07T00:32:12.977Z,35.20
2023-02-07T00:34:40.010Z,38.00
2023-02-07T00:37:06.928Z,36.90
2023-02-07T00:39:33.821Z,33.80
2023-02-07T00:42:00.598Z,37.10
2023-02-07T00:44:27.387Z,34.10
2023-02-07T00:46:54.318Z,36.70
2023-02-07T00:49:22.131Z,35.20
2023-02-07T00:51:48.858Z,34.80
2023-02-07T00:54:15.689Z,35.30
2023-02-07T00:56:43.776Z,34.60
2023-02-07T00:59:10.531Z,35.40
2023-02-07T01:01:37.489Z,36.10
2023-02-07T01:04:04.440Z,33.60
2023-02-07T01:06:33.910Z,33.70
2023-02-07T01:09:02.491Z,32.40
2023-02-07T01:11:30.383Z,32.40
2023-02-07T01:13:59.955Z,35.70
2023-02-07T01:16:30.809Z,32.60
2023-02-07T01:19:02.227Z,33.30
2023-02-07T01:21:29.280Z,30.10
2023-02-07T01:23:56.941Z,31.60
2023-02-07T01:26:25.568Z,36.50
2023-02-07T01:28:55.084Z,32.20
2023-02-07T01:31:23.209Z,32.00
2023-02-07T01:33:55.532Z,32.00
2023-02-07T01:36:22.603Z,30.90
2023-02-07T01:38:52.446Z,30.80
2023-02-07T01:41:20.602Z,31.40
2023-02-07T01:44:03.092Z,32.90
2023-02-07T01:46:32.211Z,30.00
2023-02-07T01:49:04.878Z,28.80
2023-02-07T01:51:32.848Z,31.00
2023-02-07T01:54:03.392Z,29.70
2023-02-07T01:56:32.416Z,30.50
2023-02-07T01:59:04.460Z,30.80
2023-02-07T02:01:31.681Z,31.50
2023-02-07T02:03:58.692Z,31.20
2023-02-07T02:06:30.419Z,31.70
2023-02-07T02:09:01.355Z,32.00
2023-02-07T02:11:49.471Z,33.30
2023-02-07T02:14:26.922Z,30.50
2023-02-07T02:17:22.283Z,33.80
2023-02-07T02:19:50.100Z,31.30
2023-02-07T02:22:25.464Z,28.70
2023-02-07T02:24:59.200Z,31.80
2023-02-07T02:27:34.407Z,29.70
2023-02-07T02:30:29.904Z,31.70
2023-02-07T02:33:09.212Z,30.20
2023-02-07T02:35:42.716Z,28.40
2023-02-07T02:38:24.005Z,28.60
2023-02-07T02:41:02.015Z,30.00
2023-02-07T02:43:54.037Z,29.60
2023-02-07T02:46:25.161Z,28.90
2023-02-07T02:48:53.878Z,29.20
2023-02-07T02:51:21.288Z,29.60
2023-02-07T02:53:52.867Z,32.20
2023-02-07T02:56:39.488Z,31.20
2023-02-07T02:59:26.489Z,28.80
2023-02-07T03:02:02.736Z,30.30
2023-02-07T03:05:00.484Z,32.20
2023-02-07T03:07:46.294Z,29.10
2023-02-07T03:10:24.271Z,26.60
2023-02-07T03:13:01.870Z,28.40
2023-02-07T03:15:35.025Z,28.60
2023-02-07T03:18:14.343Z,26.70
2023-02-07T03:20:47.012Z,29.00
2023-02-07T03:23:16.549Z,29.20
2023-02-07T03:25:45.756Z,27.40
2023-02-07T03:28:16.693Z,27.00
2023-02-07T03:30:49.064Z,28.60
2023-02-07T03:33:17.978Z,26.30
2023-02-07T03:36:09.772Z,25.50
2023-02-07T03:38:37.802Z,25.10
2023-02-07T03:41:15.688Z,23.20
2023-02-07T03:43:44.230Z,25.40
2023-02-07T03:46:11.738Z,25.00
2023-02-07T03:48:38.550Z,24.80
2023-02-07T03:51:05.478Z,24.40
2023-02-07T03:53:32.184Z,24.40
2023-02-07T03:55:58.966Z,24.90
2023-02-07T03:58:25.880Z,24.60
2023-02-07T04:00:52.736Z,26.10
2023-02-07T04:03:19.582Z,25.30
2023-02-07T04:05:46.569Z,25.30
2023-02-07T04:08:13.383Z,23.10
2023-02-07T04:10:40.195Z,25.30
2023-02-07T04:13:06.989Z,25.60
2023-02-07T04:15:33.833Z,26.20
2023-02-07T04:18:00.758Z,24.90
2023-02-07T04:20:27.637Z,25.50
2023-02-07T04:22:54.402Z,26.40
2023-02-07T04:25:21.359Z,26.70
2023-02-07T04:27:51.013Z,25.10
2023-02-07T04:30:17.888Z,26.40
2023-02-07T04:32:44.693Z,25.80
2023-02-07T04:35:11.440Z,26.30
2023-02-07T04:37:38.227Z,27.50
2023-02-07T04:40:05.324Z,24.90
2023-02-07T04:42:32.180Z,27.30
2023-02-07T04:44:58.919Z,26.00
2023-02-07T04:47:25.702Z,19.00
2023-02-07T04:49:52.503Z,25.80
2023-02-07T04:52:19.241Z,26.80
2023-02-07T04:54:46.260Z,24.60
2023-02-07T04:57:12.991Z,23.30
2023-02-07T04:59:39.723Z,22.50
2023-02-07T05:02:06.626Z,22.20
2023-02-07T05:04:33.444Z,23.20
2023-02-07T05:07:00.233Z,19.80
2023-02-07T05:09:27.231Z,21.00
2023-02-07T05:11:54.014Z,21.40
2023-02-07T05:14:20.778Z,23.30
2023-02-07T05:16:47.622Z,21.30
2023-02-07T05:19:14.420Z,22.50
2023-02-07T05:21:41.170Z,23.10
2023-02-07T05:24:08.277Z,24.60
2023-02-07T05:26:35.044Z,22.30
2023-02-07T05:29:01.807Z,27.00
2023-02-07T05:31:44.164Z,30.00
2023-02-07T05:34:11.089Z,33.90
2023-02-07T05:36:37.836Z,47.10
2023-02-07T05:39:04.722Z,43.50
2023-02-07T05:41:31.557Z,38.10
2023-02-07T05:43:58.268Z,39.10
2023-02-07T05:46:25.094Z,39.40
2023-02-07T05:48:51.917Z,39.10
2023-02-07T05:51:19.004Z,35.50
2023-02-07T05:53:45.815Z,37.50
2023-02-07T05:56:12.583Z,29.60
2023-02-07T05:58:39.327Z,38.10
2023-02-07T06:01:06.140Z,36.00
2023-02-07T06:03:32.939Z,30.00
2023-02-07T06:05:59.659Z,31.30
2023-02-07T06:08:26.444Z,33.10
2023-02-07T06:10:53.156Z,35.50
2023-02-07T06:13:19.964Z,35.30
2023-02-07T06:15:47.768Z,32.70
2023-02-07T06:18:14.836Z,37.00
2023-02-07T06:20:41.538Z,37.30
2023-02-07T06:23:08.332Z,36.90
2023-02-07T06:25:35.016Z,35.50
2023-02-07T06:28:01.809Z,34.20
2023-02-07T06:30:28.710Z,34.30
2023-02-07T06:32:55.423Z,19.50
2023-02-07T06:35:22.132Z,29.70
2023-02-07T06:37:48.946Z,24.60
2023-02-07T06:40:16.089Z,33.30
2023-02-07T06:42:44.467Z,35.30
2023-02-07T06:45:11.269Z,35.60
2023-02-07T06:47:37.978Z,34.20
2023-02-07T06:50:05.214Z,27.10
2023-02-07T06:52:32.047Z,38.00
2023-02-07T06:54:58.736Z,36.70
2023-02-07T06:57:25.489Z,37.80
2023-02-07T06:59:52.295Z,29.70
2023-02-07T07:02:19.184Z,29.30
2023-02-07T07:04:46.076Z,29.60
2023-02-07T07:07:12.949Z,28.70
2023-02-07T07:09:39.794Z,48.00
2023-02-07T07:12:08.806Z,53.50
2023-02-07T07:14:36.122Z,35.20
2023-02-07T07:17:02.998Z,37.00
2023-02-07T07:19:29.725Z,54.10
2023-02-07T07:21:56.593Z,53.80
2023-02-07T07:24:25.378Z,46.70
2023-02-07T07:26:52.197Z,46.00
2023-02-07T07:29:19.862Z,41.80
2023-02-07T07:31:47.332Z,41.10
2023-02-07T07:34:14.708Z,39.10
2023-02-07T07:36:41.832Z,42.70
2023-02-07T07:39:09.132Z,41.10
2023-02-07T07:41:36.342Z,45.90
2023-02-07T07:44:03.831Z,54.20
2023-02-07T07:46:30.544Z,56.90
2023-02-07T07:48:57.352Z,40.80
2023-02-07T07:51:24.269Z,45.30
2023-02-07T07:53:51.055Z,51.60
2023-02-07T07:56:17.780Z,50.90
2023-02-07T07:58:44.635Z,48.10
2023-02-07T08:01:11.393Z,48.70
2023-02-07T08:03:38.270Z,54.50
2023-02-07T08:06:06.116Z,54.30
2023-02-07T08:08:33.720Z,48.90
2023-02-07T08:11:03.661Z,58.40
2023-02-07T08:13:32.993Z,60.60
2023-02-07T08:16:01.360Z,62.70
2023-02-07T08:18:29.261Z,59.70
2023-02-07T08:20:56.405Z,63.00
2023-02-07T08:23:23.130Z,65.10
2023-02-07T08:25:50.254Z,67.70
2023-02-07T08:28:18.169Z,69.10
2023-02-07T08:30:47.676Z,67.10
2023-02-07T08:33:15.960Z,66.80
2023-02-07T08:35:43.111Z,69.00
2023-02-07T08:38:09.985Z,68.80
2023-02-07T08:40:37.601Z,67.20
2023-02-07T08:43:07.519Z,66.20
2023-02-07T08:45:34.386Z,66.90
2023-02-07T08:48:01.259Z,61.20
2023-02-07T08:50:28.086Z,64.50
2023-02-07T08:52:55.001Z,64.50
2023-02-07T08:55:24.133Z,58.00
2023-02-07T08:57:50.954Z,54.40
2023-02-07T09:00:18.126Z,57.40
2023-02-07T09:02:45.052Z,56.80
2023-02-07T09:05:12.135Z,56.50
2023-02-07T09:07:39.002Z,57.90
2023-02-07T09:10:07.774Z,65.30
2023-02-07T09:12:35.584Z,59.20
2023-02-07T09:15:03.946Z,42.60
2023-02-07T09:17:30.777Z,61.10
2023-02-07T09:19:57.660Z,64.10
2023-02-07T09:22:24.366Z,68.80
2023-02-07T09:24:51.114Z,70.90
2023-02-07T09:27:17.894Z,69.60
2023-02-07T09:29:44.852Z,74.60
2023-02-07T09:32:11.548Z,71.90
2023-02-07T09:34:38.357Z,72.70
2023-02-07T09:37:05.226Z,70.40
2023-02-07T09:39:33.127Z,53.90
2023-02-07T09:42:21.602Z,69.30
2023-02-07T09:44:56.942Z,69.30
2023-02-07T09:47:26.041Z,65.50
2023-02-07T09:50:01.723Z,66.80
2023-02-07T09:52:35.798Z,81.90
2023-02-07T09:55:05.608Z,72.80
2023-02-07T09:57:44.292Z,72.20
2023-02-07T10:00:29.108Z,74.50
2023-02-07T10:02:58.664Z,68.50
2023-02-07T10:05:34.796Z,76.40
2023-02-07T10:08:02.011Z,85.20
2023-02-07T10:10:57.066Z,90.10
2023-02-07T10:13:40.649Z,68.20
2023-02-07T10:16:23.715Z,80.20
2023-02-07T10:19:24.702Z,78.50
2023-02-07T10:21:58.899Z,79.20
2023-02-07T10:26:57.892Z,69.30
2023-02-07T10:29:28.043Z,78.60
2023-02-07T10:31:59.816Z,74.40
2023-02-07T10:34:37.661Z,79.70
2023-02-07T10:37:18.462Z,88.30
2023-02-07T10:39:52.855Z,87.40
2023-02-07T10:42:20.585Z,86.50
2023-02-07T10:44:47.877Z,84.90
2023-02-07T10:47:18.559Z,83.30
2023-02-07T10:49:48.631Z,75.80
2023-02-07T10:52:28.755Z,90.40
2023-02-07T10:54:58.927Z,88.30
2023-02-07T10:57:27.915Z,89.10
2023-02-07T11:00:01.738Z,88.90
2023-02-07T11:02:28.618Z,88.80
2023-02-07T11:04:57.231Z,73.30
2023-02-07T11:07:25.082Z,84.90
2023-02-07T11:09:52.653Z,85.40
2023-02-07T11:12:21.563Z,81.70
2023-02-07T11:15:05.809Z,81.60
2023-02-07T11:17:35.086Z,85.10
2023-02-07T11:20:05.708Z,77.90
2023-02-07T11:22:32.964Z,86.50
2023-02-07T11:25:05.509Z,86.60
2023-02-07T11:27:41.892Z,87.60
2023-02-07T11:30:16.411Z,84.70
2023-02-07T11:32:44.551Z,85.70
2023-02-07T11:35:20.883Z,81.50
2023-02-07T11:37:58.845Z,82.90
2023-02-07T11:40:36.243Z,86.70
2023-02-07T11:43:12.298Z,87.00
2023-02-07T11:45:42.992Z,91.00
2023-02-07T11:48:24.882Z,92.40
2023-02-07T11:50:55.624Z,78.40
2023-02-07T11:53:35.156Z,94.20
2023-02-07T11:56:02.294Z,93.00
2023-02-07T11:58:35.390Z,90.70
2023-02-07T12:01:05.453Z,94.90
2023-02-07T12:03:41.918Z,95.80
2023-02-07T12:06:15.708Z,95.60
2023-02-07T12:08:44.325Z,75.60
2023-02-07T12:11:17.568Z,84.50
2023-02-07T12:13:44.421Z,83.30
2023-02-07T12:16:14.721Z,82.80
2023-02-07T12:18:48.669Z,81.10
2023-02-07T12:21:30.876Z,70.20
2023-02-07T12:24:03.171Z,84.20
2023-02-07T12:26:37.655Z,49.40
2023-02-07T12:29:22.022Z,53.80
2023-02-07T12:32:12.485Z,68.70
2023-02-07T12:34:59.824Z,61.60
2023-02-07T12:37:37.648Z,59.50
2023-02-07T12:40:09.861Z,57.00
2023-02-07T12:42:49.749Z,64.80
2023-02-07T12:45:23.276Z,39.30
2023-02-07T12:47:50.105Z,60.20
2023-02-07T12:50:35.873Z,67.30
2023-02-07T12:53:21.786Z,69.10
2023-02-07T12:56:19.980Z,59.80
2023-02-07T12:59:09.675Z,66.10
2023-02-07T13:01:45.580Z,52.90
2023-02-07T13:04:25.188Z,58.50
2023-02-07T13:07:16.232Z,50.50
2023-02-07T13:10:07.287Z,59.00
2023-02-07T13:12:49.316Z,58.60
2023-02-07T13:15:21.539Z,49.00
2023-02-07T13:17:55.708Z,39.20
2023-02-07T13:22:56.971Z,55.50
2023-02-07T13:25:29.511Z,53.10
2023-02-07T13:27:59.334Z,52.80
2023-02-07T13:30:29.775Z,50.10
2023-02-07T13:33:00.929Z,48.60
2023-02-07T13:35:33.104Z,47.30
2023-02-07T13:38:31.323Z,42.60
2023-02-07T13:41:04.854Z,38.00
2023-02-07T13:44:01.638Z,35.00
2023-02-07T13:46:43.507Z,35.50
2023-02-07T13:49:23.418Z,31.70
2023-02-07T13:52:02.077Z,31.20
2023-02-07T13:54:46.658Z,30.40
2023-02-07T13:57:36.806Z,29.80
2023-02-07T14:00:07.611Z,27.30
2023-02-07T14:02:45.100Z,27.10
2023-02-07T14:05:21.286Z,28.30
2023-02-07T14:07:57.935Z,28.00
2023-02-07T14:10:34.591Z,28.30
2023-02-07T14:13:02.622Z,25.70
2023-02-07T14:15:30.745Z,25.60
2023-02-07T14:18:04.121Z,22.20
2023-02-07T14:20:47.855Z,19.70
2023-02-07T14:23:17.030Z,19.10
2023-02-07T14:25:45.758Z,17.80
2023-02-07T14:28:30.502Z,17.80
2023-02-07T14:31:01.517Z,17.70
2023-02-07T14:33:34.021Z,16.70
2023-02-07T14:36:16.935Z,18.20
2023-02-07T14:38:59.974Z,18.20
2023-02-07T14:41:30.557Z,16.50
2023-02-07T14:44:09.172Z,12.50
2023-02-07T14:46:40.904Z,49.40
2023-02-07T14:49:13.861Z,64.50
2023-02-07T14:51:47.278Z,34.50
2023-02-07T14:54:22.168Z,23.50
2023-02-07T14:57:15.574Z,40.20
2023-02-07T14:59:47.263Z,22.50
2023-02-07T15:02:31.106Z,18.90
2023-02-07T15:04:58.783Z,35.40
2023-02-07T15:07:25.555Z,19.60
2023-02-07T15:09:52.451Z,13.80
2023-02-07T15:12:27.366Z,17.10
2023-02-07T15:14:57.245Z,14.00
2023-02-07T15:17:33.472Z,19.10
2023-02-07T15:20:06.819Z,29.90
2023-02-07T15:22:33.560Z,28.60
2023-02-07T15:25:01.181Z,20.10
2023-02-07T15:27:30.061Z,17.00
2023-02-07T15:30:01.187Z,15.50
2023-02-07T15:32:31.604Z,15.70
2023-02-07T15:35:07.306Z,32.90
2023-02-07T15:37:34.136Z,30.50
2023-02-07T15:40:01.078Z,19.30
2023-02-07T15:42:28.723Z,26.50
2023-02-07T15:44:58.445Z,17.60
2023-02-07T15:47:28.539Z,16.80
2023-02-07T15:50:00.836Z,16.40
2023-02-07T15:52:27.574Z,16.00
2023-02-07T15:54:55.782Z,17.10
2023-02-07T15:57:28.495Z,18.00
2023-02-07T15:59:56.599Z,9.00
2023-02-07T16:02:29.917Z,11.50
2023-02-07T16:04:57.750Z,11.70
2023-02-07T16:07:25.139Z,14.20
2023-02-07T16:09:54.070Z,19.50
2023-02-07T16:12:32.092Z,18.90
2023-02-07T16:15:00.794Z,15.20
2023-02-07T16:17:44.544Z,20.00
2023-02-07T16:20:14.803Z,19.00
2023-02-07T16:22:43.781Z,19.90
2023-02-07T16:25:21.729Z,18.10
2023-02-07T16:27:51.386Z,19.60
2023-02-07T16:30:23.728Z,21.00
2023-02-07T16:32:50.519Z,22.10
2023-02-07T16:35:24.132Z,19.60
2023-02-07T16:37:51.513Z,20.00
2023-02-07T16:40:22.398Z,20.30
2023-02-07T16:42:50.140Z,20.40
2023-02-07T16:45:27.154Z,22.20
2023-02-07T16:47:55.386Z,22.50
2023-02-07T16:50:25.386Z,22.20
2023-02-07T16:52:54.751Z,22.40
2023-02-07T16:55:21.585Z,22.60
2023-02-07T16:57:50.318Z,23.20
2023-02-07T17:00:21.275Z,21.60
2023-02-07T17:02:50.664Z,22.40
2023-02-07T17:05:19.035Z,22.90
2023-02-07T17:07:47.459Z,22.90
2023-02-07T17:10:18.435Z,22.30
2023-02-07T17:12:45.601Z,23.60
2023-02-07T17:15:12.608Z,23.30
2023-02-07T17:17:39.708Z,22.40
2023-02-07T17:20:23.072Z,24.80
2023-02-07T17:22:51.743Z,87.40
2023-02-07T17:25:20.152Z,35.70
2023-02-07T17:27:47.393Z,27.50
2023-02-07T17:30:19.763Z,27.80
2023-02-07T17:32:47.018Z,27.70
2023-02-07T17:35:14.406Z,67.10
2023-02-07T17:37:41.601Z,35.90
2023-02-07T17:40:20.520Z,31.20
2023-02-07T17:42:47.407Z,25.70
2023-02-07T17:45:14.967Z,26.90
2023-02-07T17:47:42.164Z,27.40
2023-02-07T17:50:16.982Z,26.50
2023-02-07T17:52:44.004Z,27.20
2023-02-07T17:55:10.992Z,26.80
2023-02-07T17:57:38.222Z,27.40
2023-02-07T18:00:06.039Z,26.20
2023-02-07T18:02:39.672Z,28.70
2023-02-07T18:05:07.039Z,29.00
2023-02-07T18:07:33.982Z,30.00
2023-02-07T18:10:00.769Z,32.40
2023-02-07T18:12:27.675Z,27.40
2023-02-07T18:14:56.556Z,26.00
2023-02-07T18:17:25.566Z,25.80
2023-02-07T18:19:52.404Z,27.00
2023-02-07T18:22:19.243Z,25.70
2023-02-07T18:24:46.358Z,26.20
2023-02-07T18:27:17.463Z,25.20
2023-02-07T18:29:46.115Z,25.80
2023-02-07T18:32:13.376Z,26.40
2023-02-07T18:34:41.097Z,26.00
2023-02-07T18:37:08.114Z,25.10
2023-02-07T18:39:34.961Z,27.90
2023-02-07T18:42:02.138Z,27.80
2023-02-07T18:44:28.949Z,31.00
2023-02-07T18:46:55.942Z,31.70
2023-02-07T18:49:23.575Z,32.50
2023-02-07T18:51:50.398Z,31.70
2023-02-07T18:54:17.445Z,27.10
2023-02-07T18:56:51.868Z,26.90
2023-02-07T18:59:20.387Z,28.80
2023-02-07T19:01:48.575Z,25.40
2023-02-07T19:04:16.238Z,24.60
2023-02-07T19:06:44.854Z,24.40
2023-02-07T19:09:12.546Z,23.60
2023-02-07T19:11:40.873Z,22.80
2023-02-07T19:14:18.420Z,24.20
2023-02-07T19:16:46.374Z,70.00
2023-02-07T19:19:14.403Z,48.10
2023-02-07T19:21:41.359Z,40.70
2023-02-07T19:24:11.400Z,72.00
2023-02-07T19:26:39.618Z,64.00
2023-02-07T19:29:06.422Z,45.20
2023-02-07T19:31:33.623Z,28.90
2023-02-07T19:34:00.432Z,28.40
2023-02-07T19:36:28.985Z,28.50
2023-02-07T19:38:56.081Z,36.50
2023-02-07T19:41:24.820Z,31.10
2023-02-07T19:43:51.950Z,47.30
2023-02-07T19:46:19.089Z,36.10
2023-02-07T19:48:47.332Z,40.80
2023-02-07T19:51:18.015Z,41.40
2023-02-07T19:53:46.652Z,43.50
2023-02-07T19:56:14.242Z,35.50
2023-02-07T19:58:44.255Z,33.00
2023-02-07T20:01:26.879Z,34.00
2023-02-07T20:03:55.555Z,34.80
2023-02-07T20:06:28.768Z,35.60
2023-02-07T20:08:57.364Z,38.70
2023-02-07T20:11:24.478Z,37.80
2023-02-07T20:13:54.498Z,39.00
2023-02-07T20:16:24.471Z,38.40
2023-02-07T20:18:52.788Z,43.40
2023-02-07T20:21:24.641Z,41.20
2023-02-07T20:23:54.275Z,40.00
2023-02-07T20:26:25.042Z,44.60
2023-02-07T20:28:52.260Z,42.80
2023-02-07T20:31:22.693Z,38.50
2023-02-07T20:33:50.399Z,39.70
2023-02-07T20:36:18.773Z,39.30
2023-02-07T20:38:46.626Z,40.60
2023-02-07T20:41:29.294Z,39.40
2023-02-07T20:43:59.287Z,40.70
2023-02-07T20:46:28.163Z,38.20
2023-02-07T20:48:58.346Z,39.70
2023-02-07T20:51:26.457Z,39.10
2023-02-07T20:53:56.847Z,41.40
2023-02-07T20:56:24.306Z,38.60
2023-02-07T20:58:51.571Z,38.60
2023-02-07T21:01:21.221Z,39.10
2023-02-07T21:03:50.701Z,40.90
2023-02-07T21:06:17.989Z,41.50
2023-02-07T21:08:45.423Z,41.70
2023-02-07T21:11:12.298Z,41.80
2023-02-07T21:13:39.832Z,40.80
2023-02-07T21:16:07.819Z,56.50
2023-02-07T21:18:35.443Z,54.40
2023-02-07T21:21:07.516Z,47.60
2023-02-07T21:23:35.609Z,55.60
2023-02-07T21:26:06.436Z,58.30
2023-02-07T21:28:33.822Z,49.30
2023-02-07T21:31:05.569Z,50.50
2023-02-07T21:33:32.414Z,49.60
2023-02-07T21:36:08.582Z,48.10
2023-02-07T21:38:36.570Z,47.90
2023-02-07T21:41:05.722Z,42.70
2023-02-07T21:43:32.647Z,42.30
2023-02-07T21:46:05.659Z,45.90
2023-02-07T21:48:35.756Z,46.80
2023-02-07T21:51:07.544Z,47.70
2023-02-07T21:53:34.681Z,45.70
2023-02-07T21:56:04.948Z,46.10
2023-02-07T21:58:32.139Z,48.90
2023-02-07T22:01:08.961Z,49.50
2023-02-07T22:03:37.435Z,50.60
2023-02-07T22:06:05.993Z,48.40
2023-02-07T22:08:34.012Z,48.50
2023-02-07T22:11:11.118Z,48.80
2023-02-07T22:13:40.910Z,48.80
2023-02-07T22:16:10.726Z,47.50
2023-02-07T22:18:38.194Z,45.90
2023-02-07T22:21:07.794Z,48.50
2023-02-07T22:23:34.612Z,49.90
2023-02-07T22:26:01.360Z,48.20
2023-02-07T22:28:28.670Z,49.90
2023-02-07T22:30:55.688Z,51.10
2023-02-07T22:33:22.472Z,52.20
2023-02-07T22:35:49.330Z,49.60
2023-02-07T22:38:16.343Z,51.90
2023-02-07T22:40:43.983Z,48.20
2023-02-07T22:43:14.798Z,51.00
2023-02-07T22:45:46.217Z,51.50
2023-02-07T22:48:15.441Z,52.30
2023-02-07T22:50:43.444Z,51.80
2023-02-07T22:53:12.163Z,54.60
2023-02-07T22:55:41.041Z,63.10
2023-02-07T22:58:08.593Z,58.70
2023-02-07T23:00:35.720Z,52.70
2023-02-07T23:03:02.511Z,50.20
2023-02-07T23:05:29.276Z,50.20
2023-02-07T23:07:56.223Z,49.10
2023-02-07T23:10:24.543Z,49.30
2023-02-07T23:12:51.434Z,48.60
2023-02-07T23:15:18.577Z,46.10
2023-02-07T23:17:45.365Z,46.20
2023-02-07T23:20:12.124Z,43.70
2023-02-07T23:22:39.107Z,45.10
2023-02-07T23:25:07.009Z,45.80
2023-02-07T23:27:33.919Z,46.00
2023-02-07T23:30:00.859Z,43.10
2023-02-07T23:32:27.772Z,46.00
2023-02-07T23:34:54.495Z,50.60
2023-02-07T23:37:22.504Z,50.20
2023-02-07T23:39:49.433Z,51.10
2023-02-07T23:42:16.249Z,49.90
2023-02-07T23:44:43.119Z,46.30
2023-02-07T23:47:09.966Z,44.70
2023-02-07T23:49:36.746Z,46.00
2023-02-07T23:52:03.588Z,46.50
2023-02-07T23:54:30.400Z,43.60
2023-02-07T23:56:57.120Z,43.90
2023-02-07T23:59:23.803Z,43.70
